createdAt,value
2016-12-09T00:00:30.926Z,73.49
2016-12-09T00:01:40.945Z,73.68
2016-12-09T00:02:50.973Z,73.11
2016-12-09T00:04:00.690Z,73.2
2016-12-09T00:05:10.405Z,73.01
2016-12-09T00:06:20.133Z,73.2
2016-12-09T00:07:29.845Z,73.2
2016-12-09T00:08:40.222Z,73.11
2016-12-09T00:09:50.238Z,73.2
2016-12-09T00:11:00.245Z,72.92
2016-12-09T00:12:10.566Z,73.39
2016-12-09T00:13:20.906Z,73.01
2016-12-09T00:14:30.622Z,72.63
2016-12-09T00:15:40.940Z,72.53
2016-12-09T00:16:51.266Z,72.53
2016-12-09T00:18:01.298Z,72.82
2016-12-09T00:19:11.617Z,72.77
2016-12-09T00:20:21.677Z,72.86
2016-12-09T00:21:32.043Z,72.86
2016-12-09T00:22:42.371Z,73.14
2016-12-09T00:23:52.383Z,72.67
2016-12-09T00:25:02.389Z,72.96
2016-12-09T00:26:12.428Z,72.53
2016-12-09T00:27:22.493Z,72.48
2016-12-09T00:28:32.834Z,72.48
2016-12-09T00:29:42.860Z,72.67
2016-12-09T00:30:52.926Z,72.57
2016-12-09T00:32:02.630Z,72.57
2016-12-09T00:33:12.950Z,72.57
2016-12-09T00:34:22.652Z,72.57
2016-12-09T00:35:33.059Z,72.77
2016-12-09T00:36:43.340Z,72.77
2016-12-09T00:37:53.734Z,72.57
2016-12-09T00:39:04.054Z,72.57
2016-12-09T00:40:14.111Z,72.57
2016-12-09T00:41:24.458Z,72.48
2016-12-09T00:42:34.154Z,72.77
2016-12-09T00:43:43.870Z,72.48
2016-12-09T00:44:54.243Z,72.57
2016-12-09T00:46:04.588Z,72.67
2016-12-09T00:47:14.287Z,72.67
2016-12-09T00:48:24.012Z,72.48
2016-12-09T00:49:34.382Z,72.57
2016-12-09T00:50:44.386Z,72.48
2016-12-09T00:51:54.722Z,72.57
2016-12-09T00:53:05.054Z,72.77
2016-12-09T00:54:14.770Z,72.57
2016-12-09T00:55:25.109Z,72.67
2016-12-09T00:56:34.815Z,72.77
2016-12-09T00:57:45.152Z,72.67
2016-12-09T00:58:54.865Z,72.67
2016-12-09T01:00:04.894Z,72.57
2016-12-09T01:01:14.904Z,72.57
2016-12-09T01:02:24.968Z,72.57
2016-12-09T01:03:35.294Z,73.24
2016-12-09T01:04:45.306Z,73.14
2016-12-09T01:05:55.013Z,72.96
2016-12-09T01:07:05.270Z,73.14
2016-12-09T01:08:15.591Z,73.05
2016-12-09T01:09:25.592Z,73.24
2016-12-09T01:10:35.930Z,73.14
2016-12-09T01:11:46.251Z,73.05
2016-12-09T01:12:56.270Z,73.01
2016-12-09T01:14:06.285Z,72.92
2016-12-09T01:15:16.607Z,73.11
2016-12-09T01:16:26.923Z,72.92
2016-12-09T01:17:37.269Z,73.2
2016-12-09T01:18:47.611Z,72.92
2016-12-09T01:19:57.302Z,72.92
2016-12-09T01:21:07.321Z,72.92
2016-12-09T01:22:17.636Z,73.2
2016-12-09T01:23:27.683Z,73.01
2016-12-09T01:24:37.374Z,73.11
2016-12-09T01:25:47.396Z,73.2
2016-12-09T01:26:57.737Z,73.11
2016-12-09T01:28:07.436Z,73.01
2016-12-09T01:29:17.762Z,73.2
2016-12-09T01:30:28.078Z,73.11
2016-12-09T01:31:38.110Z,72.92
2016-12-09T01:32:48.117Z,73.2
2016-12-09T01:33:58.559Z,73.2
2016-12-09T01:35:08.615Z,73.2
2016-12-09T01:36:18.531Z,73.2
2016-12-09T01:37:29.097Z,73.2
2016-12-09T01:38:39.738Z,73.2
2016-12-09T01:39:49.894Z,72.92
2016-12-09T01:41:00.353Z,73.2
2016-12-09T01:42:11.122Z,73.2
2016-12-09T01:43:22.115Z,73.2
2016-12-09T01:44:33.126Z,73.2
2016-12-09T01:45:43.892Z,73.2
2016-12-09T01:46:54.681Z,73.2
2016-12-09T01:48:05.380Z,73.39
2016-12-09T01:49:15.927Z,73.2
2016-12-09T01:50:26.253Z,73.01
2016-12-09T01:51:35.954Z,73.2
2016-12-09T01:52:46.278Z,72.92
2016-12-09T01:53:55.975Z,73.2
2016-12-09T01:55:06.299Z,73.2
2016-12-09T01:56:16.627Z,73.2
2016-12-09T01:57:26.677Z,72.92
2016-12-09T01:58:36.669Z,72.82
2016-12-09T01:59:46.675Z,72.92
2016-12-09T02:00:57.006Z,73.39
2016-12-09T02:02:07.024Z,73.01
2016-12-09T02:03:16.726Z,72.92
2016-12-09T02:04:26.431Z,73.2
2016-12-09T02:05:36.458Z,73.11
2016-12-09T02:06:46.167Z,73.11
2016-12-09T02:07:56.502Z,73.2
2016-12-09T02:09:06.520Z,73.2
2016-12-09T02:10:16.535Z,73.3
2016-12-09T02:11:26.576Z,73.11
2016-12-09T02:12:36.948Z,73.68
2016-12-09T02:13:47.281Z,73.2
2016-12-09T02:14:57.606Z,73.3
2016-12-09T02:16:07.343Z,73.39
2016-12-09T02:17:17.365Z,73.39
2016-12-09T02:18:27.678Z,73.49
2016-12-09T02:19:37.713Z,73.39
2016-12-09T02:20:48.043Z,73.49
2016-12-09T02:21:58.048Z,73.39
2016-12-09T02:23:08.379Z,73.3
2016-12-09T02:24:18.709Z,73.39
2016-12-09T02:25:29.027Z,73.49
2016-12-09T02:26:39.048Z,73.49
2016-12-09T02:27:48.755Z,73.49
2016-12-09T02:28:58.763Z,73.49
2016-12-09T02:30:08.789Z,73.49
2016-12-09T02:31:19.121Z,73.2
2016-12-09T02:32:29.432Z,73.58
2016-12-09T02:33:39.753Z,73.49
2016-12-09T02:34:49.779Z,73.49
2016-12-09T02:36:00.092Z,73.49
2016-12-09T02:37:10.404Z,73.3
2016-12-09T02:38:20.420Z,73.2
2016-12-09T02:39:30.431Z,73.3
2016-12-09T02:40:40.463Z,73.3
2016-12-09T02:41:50.466Z,73.2
2016-12-09T02:43:00.823Z,73.11
2016-12-09T02:44:10.838Z,73.2
2016-12-09T02:45:20.847Z,73.49
2016-12-09T02:46:30.860Z,73.49
2016-12-09T02:47:40.560Z,73.39
2016-12-09T02:48:50.876Z,73.3
2016-12-09T02:50:01.206Z,73.77
2016-12-09T02:51:11.533Z,73.01
2016-12-09T02:52:21.542Z,73.2
2016-12-09T02:53:31.863Z,73.2
2016-12-09T02:54:42.184Z,73.2
2016-12-09T02:55:52.501Z,73.2
2016-12-09T02:57:02.512Z,73.11
2016-12-09T02:58:12.203Z,72.92
2016-12-09T02:59:22.246Z,72.92
2016-12-09T03:00:31.952Z,73.01
2016-12-09T03:01:42.288Z,72.92
